Time;durP1;ratioP1;P1;durP2;ratioP2;P2;SDS_P1;SDS_P2;PMS_P1;PMS_P2;Temp;Humidity;BMP_temperature;BMP_pressure;BME280_temperature;BME280_humidity;BME280_pressure;Samples;Min_cycle;Max_cycle;Signal;HPM_P1;HPM_P2
2023/05/16 00:00:54;;;;;;;23.92;4.35;;;8.50;99.90;;;;;;4972772;28;20435;-70
2023/05/16 00:03:20;;;;;;;17.77;3.10;;;8.50;99.90;;;;;;4933775;28;229725;-70
2023/05/16 00:05:46;;;;;;;23.83;3.35;;;8.50;99.90;;;;;;5016380;28;20046;-69
2023/05/16 00:08:13;;;;;;;25.10;3.65;;;8.40;99.90;;;;;;4934319;28;208734;-71
2023/05/16 00:10:39;;;;;;;21.30;3.58;;;8.40;99.90;;;;;;5010933;28;20054;-69
2023/05/16 00:13:05;;;;;;;28.42;3.88;;;8.40;99.90;;;;;;4933187;28;206306;-69
2023/05/16 00:15:32;;;;;;;24.27;3.53;;;8.40;99.90;;;;;;5011466;28;20419;-70
2023/05/16 00:17:58;;;;;;;24.73;3.55;;;8.40;99.90;;;;;;4993869;28;207208;-70
2023/05/16 00:20:26;;;;;;;20.85;3.10;;;8.40;99.90;;;;;;4954526;28;20057;-68
2023/05/16 00:22:53;;;;;;;20.55;3.67;;;8.40;99.90;;;;;;5000331;28;20061;-69
2023/05/16 00:25:20;;;;;;;22.10;2.85;;;8.30;99.90;;;;;;4967730;28;207040;-69
2023/05/16 00:27:46;;;;;;;24.33;3.42;;;8.30;99.90;;;;;;5005286;28;20057;-70
2023/05/16 00:30:12;;;;;;;21.67;3.47;;;8.20;99.90;;;;;;4951450;28;211251;-71
2023/05/16 00:32:39;;;;;;;23.20;3.15;;;8.20;99.90;;;;;;4987736;28;20396;-70
2023/05/16 00:35:06;;;;;;;22.73;3.08;;;8.10;99.90;;;;;;4963065;28;253521;-70
2023/05/16 00:37:32;;;;;;;21.70;3.35;;;8.10;99.90;;;;;;4986511;28;20054;-71
2023/05/16 00:39:58;;;;;;;21.10;3.10;;;8.10;99.90;;;;;;4970458;28;207323;-71
2023/05/16 00:42:24;;;;;;;20.88;2.80;;;8.10;99.90;;;;;;5002441;28;20058;-70
2023/05/16 00:44:50;;;;;;;20.40;2.92;;;8.10;99.90;;;;;;4975378;28;208642;-70
2023/05/16 00:47:16;;;;;;;18.45;3.00;;;8.00;99.90;;;;;;4987437;28;20420;-70
2023/05/16 00:49:42;;;;;;;21.17;2.80;;;8.00;99.90;;;;;;4936930;28;205810;-70
2023/05/16 00:52:08;;;;;;;21.77;3.38;;;7.90;99.90;;;;;;4985118;28;20050;-70
2023/05/16 00:54:34;;;;;;;21.45;3.17;;;7.90;99.90;;;;;;4952641;28;206518;-69
2023/05/16 00:57:00;;;;;;;25.20;3.35;;;7.90;99.90;;;;;;5002437;28;20503;-70
2023/05/16 00:59:27;;;;;;;17.85;2.67;;;7.80;99.90;;;;;;4929732;28;224082;-70
2023/05/16 01:01:54;;;;;;;22.52;2.88;;;7.80;99.90;;;;;;4989673;28;20119;-70
2023/05/16 01:04:21;;;;;;;20.90;3.25;;;7.70;99.90;;;;;;4921544;28;208122;-70
2023/05/16 01:06:47;;;;;;;22.15;2.80;;;7.70;99.90;;;;;;4981392;28;20062;-70
2023/05/16 01:09:13;;;;;;;24.02;2.80;;;7.60;99.90;;;;;;4947675;28;208493;-71
2023/05/16 01:12:08;;;;;;;15.07;2.90;;;7.60;99.90;;;;;;4983576;28;20051;-70
2023/05/16 01:14:51;;;;;;;17.45;2.70;;;7.60;99.90;;;;;;4962523;28;205525;-71
2023/05/16 01:17:38;;;;;;;21.67;2.95;;;7.60;99.90;;;;;;5000922;28;20061;-71
2023/05/16 01:20:14;;;;;;;21.30;2.78;;;7.50;99.90;;;;;;4964705;28;212010;-71
2023/05/16 01:22:43;;;;;;;27.17;3.85;;;7.50;99.90;;;;;;4995167;28;20050;-70
2023/05/16 01:25:44;;;;;;;17.02;2.42;;;7.50;99.90;;;;;;4960540;28;225951;-70
2023/05/16 01:28:14;;;;;;;17.83;2.65;;;7.50;99.90;;;;;;4950001;28;207597;-71
2023/05/16 01:30:40;;;;;;;20.33;2.40;;;7.40;99.90;;;;;;5010351;28;20073;-70
2023/05/16 01:33:07;;;;;;;18.47;3.00;;;7.40;99.90;;;;;;4927355;28;207268;-70
2023/05/16 01:35:39;;;;;;;16.85;2.45;;;7.40;99.90;;;;;;5031293;28;20054;-70
2023/05/16 01:38:14;;;;;;;22.17;3.25;;;7.40;99.90;;;;;;4952066;28;213460;-71
2023/05/16 01:41:20;;;;;;;21.95;2.90;;;7.50;99.90;;;;;;5003209;28;20399;-71
2023/05/16 01:43:50;;;;;;;20.05;3.05;;;7.40;99.90;;;;;;4938915;28;208494;-70
2023/05/16 01:46:24;;;;;;;19.25;2.60;;;7.40;99.90;;;;;;4999524;28;20126;-71
2023/05/16 01:49:00;;;;;;;14.07;2.55;;;7.40;99.90;;;;;;4949639;28;215764;-70
2023/05/16 01:51:32;;;;;;;16.92;2.88;;;7.30;99.90;;;;;;5000392;28;20042;-70
2023/05/16 01:54:04;;;;;;;15.98;2.50;;;7.30;99.90;;;;;;4954618;28;207663;-71
2023/05/16 01:56:31;;;;;;;20.15;3.25;;;7.30;99.90;;;;;;5013333;28;20045;-71
2023/05/16 01:59:00;;;;;;;21.92;3.20;;;7.30;99.90;;;;;;4940238;28;230774;-70
2023/05/16 02:01:26;;;;;;;21.45;2.85;;;7.20;99.90;;;;;;4999980;28;20064;-70
2023/05/16 02:03:52;;;;;;;21.17;2.90;;;7.20;99.90;;;;;;4945726;28;207693;-70
2023/05/16 02:06:18;;;;;;;20.67;3.13;;;7.20;99.90;;;;;;4992891;28;20054;-70
2023/05/16 02:08:44;;;;;;;21.42;3.08;;;7.20;99.90;;;;;;4941757;28;208914;-70
2023/05/16 02:11:10;;;;;;;15.48;2.38;;;7.20;99.90;;;;;;4993160;28;20057;-70
2023/05/16 02:13:36;;;;;;;16.83;2.85;;;7.30;99.90;;;;;;4949593;28;211226;-70
2023/05/16 02:16:03;;;;;;;18.15;2.83;;;7.40;99.90;;;;;;5029594;28;20062;-70
2023/05/16 02:18:29;;;;;;;20.08;2.75;;;7.40;99.90;;;;;;4955592;28;207169;-70
2023/05/16 02:20:55;;;;;;;17.73;2.97;;;7.50;99.90;;;;;;5007186;28;20416;-69
2023/05/16 02:23:21;;;;;;;19.10;2.85;;;7.60;99.90;;;;;;4941758;28;216844;-70
2023/05/16 02:25:47;;;;;;;15.10;2.17;;;7.60;99.90;;;;;;5012643;28;20049;-69
2023/05/16 02:28:13;;;;;;;20.97;2.47;;;7.60;99.90;;;;;;4954823;28;213532;-69
2023/05/16 02:30:40;;;;;;;18.50;2.80;;;7.70;99.90;;;;;;5020612;28;20515;-69
2023/05/16 02:33:06;;;;;;;21.23;2.95;;;7.70;99.90;;;;;;4947225;28;207510;-69
2023/05/16 02:35:32;;;;;;;19.05;2.50;;;7.60;99.90;;;;;;5013446;28;20050;-70
2023/05/16 02:37:58;;;;;;;15.95;2.67;;;7.60;99.90;;;;;;4993043;28;208168;-70
2023/05/16 02:40:24;;;;;;;16.98;2.85;;;7.70;99.90;;;;;;4962940;28;25731;-69
2023/05/16 02:42:50;;;;;;;18.55;2.45;;;7.70;99.90;;;;;;4996659;28;20069;-70
2023/05/16 02:45:16;;;;;;;19.65;2.70;;;7.70;99.90;;;;;;4982966;28;208641;-69
2023/05/16 02:47:42;;;;;;;21.83;2.78;;;7.60;99.90;;;;;;5006842;28;20056;-70
2023/05/16 02:50:09;;;;;;;18.85;2.63;;;7.60;99.90;;;;;;4984060;28;207451;-70
2023/05/16 02:52:35;;;;;;;22.33;2.70;;;7.50;99.90;;;;;;5017146;28;20073;-69
2023/05/16 02:55:01;;;;;;;19.95;2.92;;;7.50;99.90;;;;;;4986165;28;209233;-70
2023/05/16 02:57:27;;;;;;;17.77;2.88;;;7.40;99.90;;;;;;5041611;28;20426;-70
2023/05/16 02:59:53;;;;;;;21.00;2.90;;;7.30;99.90;;;;;;4958837;28;277115;-70
2023/05/16 03:02:19;;;;;;;15.73;2.45;;;7.30;99.90;;;;;;5007761;28;20046;-71
2023/05/16 03:04:45;;;;;;;20.67;3.00;;;7.20;99.90;;;;;;4975632;28;205607;-70
2023/05/16 03:07:11;;;;;;;18.40;3.03;;;7.20;99.90;;;;;;5007034;28;20050;-70
2023/05/16 03:09:37;;;;;;;18.90;2.75;;;7.20;99.90;;;;;;4964661;28;210254;-70
2023/05/16 03:12:03;;;;;;;22.48;2.70;;;7.10;99.90;;;;;;4995161;28;20096;-70
2023/05/16 03:14:30;;;;;;;18.90;2.75;;;7.00;99.90;;;;;;4959852;28;208609;-70
2023/05/16 03:16:56;;;;;;;21.05;3.45;;;7.00;99.90;;;;;;4999965;28;20415;-70
2023/05/16 03:19:22;;;;;;;20.00;2.63;;;7.00;99.90;;;;;;4971123;28;208691;-71
2023/05/16 03:21:48;;;;;;;17.10;2.60;;;6.90;99.90;;;;;;5008633;28;20057;-70
2023/05/16 03:24:14;;;;;;;23.05;3.03;;;6.90;99.90;;;;;;4967280;28;205872;-71
2023/05/16 03:26:40;;;;;;;18.55;2.97;;;6.90;99.90;;;;;;4996970;28;20061;-70
2023/05/16 03:29:06;;;;;;;18.42;3.03;;;6.90;99.90;;;;;;4948056;28;205657;-71
2023/05/16 03:31:32;;;;;;;17.33;3.08;;;6.90;99.90;;;;;;5010124;28;20684;-71
2023/05/16 03:33:58;;;;;;;19.83;2.90;;;6.80;99.90;;;;;;4980648;28;207056;-70
2023/05/16 03:36:26;;;;;;;17.77;2.80;;;6.80;99.90;;;;;;5011529;28;20061;-70
2023/05/16 03:38:52;;;;;;;16.92;2.70;;;6.80;99.90;;;;;;4954107;28;209123;-71
2023/05/16 03:41:18;;;;;;;18.08;3.00;;;6.80;99.90;;;;;;5014320;28;20058;-72
2023/05/16 03:43:44;;;;;;;15.38;2.70;;;6.80;99.90;;;;;;4959434;28;209849;-70
2023/05/16 03:46:10;;;;;;;19.08;2.95;;;6.80;99.90;;;;;;4993184;28;20076;-70
2023/05/16 03:48:37;;;;;;;18.15;3.20;;;6.70;99.90;;;;;;4938153;28;214035;-70
2023/05/16 03:51:03;;;;;;;21.98;2.85;;;6.70;99.90;;;;;;5008682;28;20054;-70
2023/05/16 03:53:29;;;;;;;15.40;2.88;;;6.70;99.90;;;;;;4939972;28;206871;-71
2023/05/16 03:55:55;;;;;;;23.23;3.05;;;6.70;99.90;;;;;;5001587;28;20054;-70
2023/05/16 03:58:21;;;;;;;20.17;3.97;;;6.70;99.90;;;;;;4955350;28;208248;-70
2023/05/16 04:00:47;;;;;;;18.65;2.97;;;6.70;99.90;;;;;;5016891;28;20534;-70
2023/05/16 04:03:13;;;;;;;15.53;2.50;;;6.80;99.90;;;;;;4950212;28;209694;-70
2023/05/16 04:05:39;;;;;;;19.33;2.80;;;6.90;99.90;;;;;;5016466;28;20057;-70
2023/05/16 04:08:06;;;;;;;16.08;2.70;;;7.00;99.90;;;;;;4952709;28;214013;-71
2023/05/16 04:10:32;;;;;;;21.85;2.97;;;7.00;99.90;;;;;;5042520;28;20053;-70
2023/05/16 04:12:58;;;;;;;21.00;3.05;;;7.10;99.90;;;;;;4990644;28;210719;-71
2023/05/16 04:15:24;;;;;;;16.48;2.92;;;7.10;99.90;;;;;;4964359;28;237196;-70
2023/05/16 04:17:50;;;;;;;20.70;2.70;;;7.10;99.90;;;;;;4986152;28;20484;-70
2023/05/16 04:20:16;;;;;;;18.38;3.20;;;7.10;99.90;;;;;;4959816;28;207235;-70
2023/05/16 04:22:42;;;;;;;25.60;3.33;;;7.10;99.90;;;;;;5011506;28;20045;-70
2023/05/16 04:25:10;;;;;;;18.70;3.05;;;7.20;99.90;;;;;;4969212;28;212824;-71
2023/05/16 04:27:36;;;;;;;15.57;2.35;;;7.20;99.90;;;;;;4985165;28;20065;-70
2023/05/16 04:30:02;;;;;;;20.48;3.03;;;7.20;99.90;;;;;;4927360;28;204761;-70
2023/05/16 04:32:28;;;;;;;23.70;3.42;;;7.30;99.90;;;;;;4981001;28;20057;-70
2023/05/16 04:34:55;;;;;;;20.55;3.00;;;7.30;99.90;;;;;;4972059;28;206659;-70
2023/05/16 04:37:21;;;;;;;14.90;2.58;;;7.20;99.90;;;;;;5006719;28;20060;-69
2023/05/16 04:39:47;;;;;;;13.60;2.40;;;7.30;99.90;;;;;;4970115;28;212686;-70
2023/05/16 04:42:13;;;;;;;20.85;2.67;;;7.20;99.90;;;;;;5003196;28;20073;-70
2023/05/16 04:44:39;;;;;;;14.80;2.45;;;7.30;99.90;;;;;;4968412;28;207819;-71
2023/05/16 04:47:06;;;;;;;16.15;2.75;;;7.20;99.90;;;;;;5009653;28;20065;-70
2023/05/16 04:49:32;;;;;;;18.13;2.78;;;7.30;99.90;;;;;;4955617;28;207616;-71
2023/05/16 04:51:58;;;;;;;20.80;2.90;;;7.30;99.90;;;;;;5007438;28;20064;-70
2023/05/16 04:54:25;;;;;;;16.50;2.63;;;7.30;99.90;;;;;;4961400;28;211634;-70
2023/05/16 04:56:51;;;;;;;19.50;2.88;;;7.40;99.90;;;;;;5004475;28;20044;-69
2023/05/16 04:59:17;;;;;;;19.70;3.00;;;7.40;99.90;;;;;;4943801;28;209894;-70
2023/05/16 05:01:43;;;;;;;21.83;2.80;;;7.50;99.90;;;;;;4987157;28;20645;-70
2023/05/16 05:04:09;;;;;;;16.13;2.70;;;7.50;99.90;;;;;;4961677;28;207367;-70
2023/05/16 05:06:35;;;;;;;21.77;3.08;;;7.50;99.90;;;;;;5001467;28;20054;-70
2023/05/16 05:09:01;;;;;;;18.15;2.97;;;7.50;99.90;;;;;;4953019;28;207727;-71
2023/05/16 05:11:27;;;;;;;18.05;2.22;;;7.50;99.90;;;;;;5001421;28;20058;-70
2023/05/16 05:13:54;;;;;;;20.15;2.90;;;7.60;99.90;;;;;;4949316;28;212892;-70
2023/05/16 05:16:20;;;;;;;20.15;2.80;;;7.60;99.90;;;;;;5000786;28;20451;-71
2023/05/16 05:18:46;;;;;;;13.10;2.45;;;7.80;99.90;;;;;;4927531;28;199276;-70
2023/05/16 05:21:12;;;;;;;12.80;2.60;;;7.90;99.90;;;;;;4961321;28;20499;-69
2023/05/16 05:23:39;;;;;;;15.25;2.50;;;8.10;99.90;;;;;;4961713;28;206570;-71
2023/05/16 05:26:05;;;;;;;22.35;2.90;;;8.10;99.90;;;;;;4980188;28;20671;-70
2023/05/16 05:28:31;;;;;;;23.17;2.78;;;8.10;99.90;;;;;;4932962;28;218758;-70
2023/05/16 05:30:58;;;;;;;18.60;2.85;;;8.30;99.90;;;;;;5003518;28;20065;-69
2023/05/16 05:33:28;;;;;;;15.55;2.30;;;8.50;99.90;;;;;;4929412;28;213551;-71
2023/05/16 05:35:54;;;;;;;15.23;2.63;;;8.70;99.90;;;;;;4996301;28;20046;-70
2023/05/16 05:38:20;;;;;;;22.40;3.05;;;9.10;99.90;;;;;;4949217;28;249808;-70
2023/05/16 05:40:48;;;;;;;16.27;2.50;;;9.30;99.90;;;;;;5009289;28;20053;-69
2023/05/16 05:43:14;;;;;;;19.98;2.90;;;9.50;99.90;;;;;;4941972;28;221962;-69
2023/05/16 05:45:41;;;;;;;15.32;2.42;;;9.70;99.90;;;;;;5001528;28;20256;-70
2023/05/16 05:48:07;;;;;;;15.50;2.08;;;9.80;99.90;;;;;;4943929;28;211172;-69
2023/05/16 05:50:33;;;;;;;17.90;2.50;;;9.90;99.90;;;;;;5015950;28;20523;-69
2023/05/16 05:53:00;;;;;;;15.40;2.50;;;10.20;99.90;;;;;;4954744;28;209609;-70
2023/05/16 05:55:26;;;;;;;18.23;2.67;;;10.20;99.90;;;;;;5000571;28;205653;-70
2023/05/16 05:57:52;;;;;;;17.88;2.60;;;10.30;99.90;;;;;;4999533;28;20125;-70
2023/05/16 06:00:18;;;;;;;11.90;2.20;;;10.50;99.90;;;;;;4931116;28;240130;-68
2023/05/16 06:02:44;;;;;;;16.98;2.10;;;10.50;99.90;;;;;;4982974;28;20462;-69
2023/05/16 06:05:10;;;;;;;11.45;1.95;;;10.70;99.90;;;;;;4960733;28;216340;-69
2023/05/16 06:07:37;;;;;;;15.93;2.33;;;10.70;99.90;;;;;;4999884;28;20050;-69
2023/05/16 06:10:04;;;;;;;15.18;2.20;;;10.80;99.90;;;;;;4926117;28;220451;-69
2023/05/16 06:12:30;;;;;;;12.68;2.38;;;10.90;99.90;;;;;;4976467;28;20089;-68
2023/05/16 06:14:56;;;;;;;16.10;2.70;;;11.10;99.90;;;;;;4959375;28;205060;-68
2023/05/16 06:17:23;;;;;;;15.05;2.10;;;11.30;99.90;;;;;;5000541;28;20057;-68
2023/05/16 06:19:49;;;;;;;16.33;2.22;;;11.20;99.90;;;;;;4940039;28;212265;-68
2023/05/16 06:22:15;;;;;;;14.98;2.10;;;11.10;99.90;;;;;;5002102;28;20073;-69
2023/05/16 06:24:41;;;;;;;11.93;1.92;;;11.30;99.90;;;;;;4955945;28;209340;-69
2023/05/16 06:27:08;;;;;;;16.95;1.92;;;11.50;99.90;;;;;;4986945;28;20050;-69
2023/05/16 06:29:34;;;;;;;14.48;1.90;;;11.70;99.90;;;;;;4958731;28;205671;-68
2023/05/16 06:32:00;;;;;;;12.88;1.80;;;11.50;99.90;;;;;;5005566;28;20514;-68
2023/05/16 06:34:27;;;;;;;15.15;2.40;;;11.50;99.90;;;;;;4958715;28;214076;-69
2023/05/16 06:36:54;;;;;;;11.38;1.88;;;11.40;99.90;;;;;;5003962;28;20054;-69
2023/05/16 06:39:20;;;;;;;6.80;0.90;;;11.10;99.90;;;;;;4963284;28;211014;-69
2023/05/16 06:41:46;;;;;;;8.18;1.20;;;10.90;99.90;;;;;;4988483;28;20437;-68
2023/05/16 06:44:12;;;;;;;8.00;1.25;;;11.00;99.90;;;;;;4956502;28;211029;-68
2023/05/16 06:46:38;;;;;;;7.40;1.10;;;10.90;99.90;;;;;;5008799;28;20054;-69
2023/05/16 06:49:06;;;;;;;8.60;1.13;;;11.10;99.90;;;;;;4952418;28;217595;-69
2023/05/16 06:51:32;;;;;;;7.78;1.40;;;11.10;99.90;;;;;;4984049;28;20061;-70
2023/05/16 06:53:58;;;;;;;7.97;1.35;;;11.20;99.90;;;;;;4941505;28;215865;-70
2023/05/16 06:56:24;;;;;;;9.55;1.50;;;11.30;99.90;;;;;;5003543;28;20068;-69
2023/05/16 06:58:50;;;;;;;14.88;1.33;;;11.50;99.90;;;;;;4924793;28;210985;-69
2023/05/16 07:01:16;;;;;;;11.85;1.42;;;11.40;99.90;;;;;;4984684;28;20065;-69
2023/05/16 07:03:43;;;;;;;9.75;1.55;;;11.60;99.90;;;;;;4966620;28;205621;-69
2023/05/16 07:06:09;;;;;;;6.57;1.30;;;11.70;99.90;;;;;;4993458;28;20054;-69
2023/05/16 07:08:35;;;;;;;11.25;1.55;;;12.00;99.90;;;;;;4936887;28;216918;-69
2023/05/16 07:11:02;;;;;;;13.05;1.95;;;12.30;99.90;;;;;;5011411;28;20062;-69
2023/05/16 07:13:28;;;;;;;9.77;1.40;;;12.20;99.90;;;;;;4945309;28;210635;-69
2023/05/16 07:15:54;;;;;;;10.25;1.40;;;12.20;99.90;;;;;;5004838;28;20057;-68
2023/05/16 07:18:20;;;;;;;8.97;1.50;;;12.60;99.90;;;;;;4932041;28;212665;-69
2023/05/16 07:20:47;;;;;;;14.15;1.60;;;13.00;99.90;;;;;;5001767;28;20416;-69
2023/05/16 07:23:13;;;;;;;8.30;1.33;;;13.70;99.90;;;;;;4924363;28;215606;-69
2023/05/16 07:25:39;;;;;;;9.77;1.50;;;13.70;99.60;;;;;;5008852;28;20069;-69
2023/05/16 07:28:05;;;;;;;12.27;1.60;;;13.30;98.90;;;;;;4943817;28;210703;-70
2023/05/16 07:30:31;;;;;;;12.10;1.55;;;13.20;99.90;;;;;;4997758;28;20487;-69
2023/05/16 07:32:58;;;;;;;15.30;1.85;;;13.30;99.90;;;;;;4963785;28;211247;-69
2023/05/16 07:35:24;;;;;;;15.07;1.60;;;13.90;99.90;;;;;;4964714;28;270754;-69
2023/05/16 07:37:50;;;;;;;12.05;1.77;;;14.20;99.90;;;;;;5008248;28;20406;-70
2023/05/16 07:40:17;;;;;;;9.60;1.45;;;14.30;99.90;;;;;;4973490;28;208771;-69
2023/05/16 07:42:43;;;;;;;9.75;1.50;;;13.60;98.80;;;;;;5008651;28;20054;-72
2023/05/16 07:45:09;;;;;;;11.55;1.77;;;13.60;99.30;;;;;;4963439;28;212667;-69
2023/05/16 07:47:35;;;;;;;14.30;1.40;;;13.60;99.30;;;;;;5003912;28;20045;-67
2023/05/16 07:50:02;;;;;;;12.73;1.73;;;13.30;98.90;;;;;;4970142;28;210027;-69
2023/05/16 07:52:28;;;;;;;12.80;1.88;;;13.60;99.30;;;;;;5002526;28;20065;-68
2023/05/16 07:54:54;;;;;;;10.30;1.30;;;14.10;98.50;;;;;;4952678;28;222611;-68
2023/05/16 07:57:20;;;;;;;13.27;2.33;;;13.60;98.60;;;;;;4976604;28;20130;-68
2023/05/16 07:59:47;;;;;;;13.85;1.90;;;13.40;99.40;;;;;;4936934;28;206400;-69
2023/05/16 08:02:13;;;;;;;12.35;1.70;;;13.50;99.70;;;;;;4980715;28;20054;-69
2023/05/16 08:04:39;;;;;;;13.35;1.90;;;13.50;99.70;;;;;;4944407;28;251358;-69
2023/05/16 08:07:05;;;;;;;13.48;1.77;;;13.60;99.90;;;;;;5002369;28;20514;-70
2023/05/16 08:09:31;;;;;;;10.95;1.50;;;14.00;99.90;;;;;;4973581;28;213569;-70
2023/05/16 08:12:02;;;;;;;9.43;1.50;;;13.80;98.70;;;;;;4990043;28;20065;-69
2023/05/16 08:14:30;;;;;;;14.60;2.30;;;13.50;98.80;;;;;;4933881;28;210303;-68
2023/05/16 08:16:58;;;;;;;15.25;1.90;;;13.20;99.10;;;;;;4981198;28;20519;-69
2023/05/16 08:19:24;;;;;;;9.88;1.92;;;13.10;99.10;;;;;;4950947;28;210481;-68
2023/05/16 08:21:51;;;;;;;8.07;1.30;;;12.60;99.10;;;;;;4994484;28;20123;-68
2023/05/16 08:24:17;;;;;;;14.15;1.92;;;12.60;97.80;;;;;;4953339;28;215146;-70
2023/05/16 08:26:44;;;;;;;12.57;1.73;;;12.70;98.30;;;;;;5020917;28;20061;-70
2023/05/16 08:29:10;;;;;;;8.80;1.67;;;13.30;96.70;;;;;;4959511;28;208084;-70
2023/05/16 08:31:36;;;;;;;13.20;1.88;;;13.10;96.70;;;;;;4995404;28;20054;-69
2023/05/16 08:34:05;;;;;;;10.57;1.40;;;13.20;97.30;;;;;;4960962;28;212579;-69
2023/05/16 08:36:34;;;;;;;10.02;1.50;;;13.20;96.70;;;;;;5005873;28;20050;-69
2023/05/16 08:39:00;;;;;;;12.40;1.77;;;13.60;96.30;;;;;;4938416;28;215559;-70
2023/05/16 08:41:26;;;;;;;9.48;1.50;;;14.20;96.80;;;;;;4985593;28;20050;-69
2023/05/16 08:43:53;;;;;;;9.10;1.50;;;14.20;95.40;;;;;;4962321;28;205755;-69
2023/05/16 08:46:21;;;;;;;11.93;1.65;;;14.50;96.20;;;;;;5004980;28;20084;-68
2023/05/16 08:48:52;;;;;;;16.67;1.48;;;15.20;96.00;;;;;;4939920;28;212182;-68
2023/05/16 08:51:19;;;;;;;11.17;1.60;;;15.00;95.00;;;;;;4986943;28;20050;-68
2023/05/16 08:53:51;;;;;;;9.93;1.50;;;14.50;95.90;;;;;;4954085;28;207258;-69
2023/05/16 08:56:17;;;;;;;11.75;1.45;;;14.90;95.60;;;;;;4999751;28;20054;-69
2023/05/16 08:58:45;;;;;;;12.02;1.65;;;15.60;94.80;;;;;;4938479;28;212654;-69
2023/05/16 09:01:11;;;;;;;9.45;1.42;;;16.40;95.60;;;;;;4999373;28;20668;-69
2023/05/16 09:03:38;;;;;;;11.77;1.80;;;16.50;93.40;;;;;;4937442;28;212522;-68
2023/05/16 09:06:05;;;;;;;10.90;1.70;;;15.60;95.40;;;;;;5017617;28;20046;-68
2023/05/16 09:08:31;;;;;;;7.45;1.38;;;14.90;95.30;;;;;;4956631;28;219546;-69
2023/05/16 09:10:57;;;;;;;10.70;1.40;;;14.00;95.50;;;;;;5024305;28;20072;-69
2023/05/16 09:13:24;;;;;;;13.00;1.65;;;13.60;96.00;;;;;;4944262;28;207095;-70
2023/05/16 09:16:14;;;;;;;10.75;1.40;;;13.80;96.20;;;;;;5012948;28;20542;-69
2023/05/16 09:18:44;;;;;;;7.68;1.23;;;14.20;95.60;;;;;;4951280;28;216841;-69
2023/05/16 09:21:11;;;;;;;7.32;1.08;;;14.50;94.40;;;;;;5004651;28;20403;-69
2023/05/16 09:23:37;;;;;;;12.45;1.40;;;15.00;92.80;;;;;;4983433;28;207466;-70
2023/05/16 09:26:06;;;;;;;12.50;1.60;;;14.20;94.10;;;;;;5004492;28;20057;-70
2023/05/16 09:28:36;;;;;;;9.43;1.20;;;15.60;94.00;;;;;;4953931;28;210677;-68
2023/05/16 09:31:02;;;;;;;11.50;1.40;;;16.70;92.90;;;;;;5008168;28;20061;-69
2023/05/16 09:33:29;;;;;;;11.80;1.83;;;16.80;93.70;;;;;;4960069;28;215036;-69
2023/05/16 09:35:59;;;;;;;11.85;1.63;;;17.10;92.60;;;;;;5029692;28;20061;-68
2023/05/16 09:38:27;;;;;;;11.38;1.73;;;16.20;93.30;;;;;;4950029;28;227041;-68
2023/05/16 09:40:53;;;;;;;10.13;1.40;;;15.90;93.70;;;;;;5000877;28;20061;-68
2023/05/16 09:43:24;;;;;;;11.35;1.70;;;15.60;93.90;;;;;;4953917;28;207114;-69
2023/05/16 09:45:50;;;;;;;10.65;1.63;;;15.20;94.00;;;;;;5012244;28;20107;-70
2023/05/16 09:48:17;;;;;;;14.25;1.95;;;14.60;94.50;;;;;;4946767;28;212433;-70
2023/05/16 09:50:53;;;;;;;9.35;1.52;;;14.10;94.70;;;;;;4998879;28;20050;-69
2023/05/16 09:53:32;;;;;;;11.57;1.75;;;14.70;94.20;;;;;;4929593;28;213149;-71
2023/05/16 09:56:02;;;;;;;10.43;1.88;;;15.60;94.40;;;;;;5007490;28;20049;-71
2023/05/16 09:58:30;;;;;;;10.98;1.73;;;15.90;94.00;;;;;;4927051;28;210480;-70
2023/05/16 10:00:58;;;;;;;11.85;1.90;;;15.90;94.30;;;;;;5021392;28;20114;-71
2023/05/16 10:03:25;;;;;;;9.18;1.25;;;16.60;94.90;;;;;;4942223;28;215531;-69
2023/05/16 10:05:53;;;;;;;9.27;1.45;;;17.30;93.70;;;;;;5023127;28;20381;-69
2023/05/16 10:08:21;;;;;;;10.85;1.83;;;16.60;93.20;;;;;;4949232;28;242575;-68
2023/05/16 10:10:54;;;;;;;8.85;1.60;;;17.30;94.40;;;;;;5004700;28;20057;-69
2023/05/16 10:13:28;;;;;;;13.23;1.85;;;18.30;93.10;;;;;;4942275;28;212046;-69
2023/05/16 10:15:56;;;;;;;11.10;1.40;;;18.60;92.40;;;;;;5012808;28;20427;-68
2023/05/16 10:18:28;;;;;;;18.25;1.77;;;17.50;93.20;;;;;;4927766;28;214553;-68
2023/05/16 10:20:59;;;;;;;8.50;1.60;;;16.60;93.70;;;;;;5000414;28;20054;-69
2023/05/16 10:23:26;;;;;;;9.10;1.35;;;17.40;92.70;;;;;;4930442;28;212594;-69
2023/05/16 10:25:56;;;;;;;9.60;1.67;;;16.70;92.60;;;;;;4988900;28;20055;-68
2023/05/16 10:28:23;;;;;;;10.73;1.67;;;15.50;93.50;;;;;;4930125;28;212886;-68
2023/05/16 10:30:50;;;;;;;9.82;1.63;;;14.40;94.40;;;;;;5022415;28;20416;-69
2023/05/16 10:33:18;;;;;;;12.53;1.57;;;13.90;95.30;;;;;;4949358;28;212136;-70
2023/05/16 10:35:45;;;;;;;10.65;1.60;;;13.70;95.50;;;;;;5002933;28;21525;-70
2023/05/16 10:38:15;;;;;;;9.40;1.40;;;14.50;95.00;;;;;;4922843;28;215615;-70
2023/05/16 10:40:42;;;;;;;9.98;1.58;;;15.10;93.80;;;;;;4999977;28;20964;-70
2023/05/16 10:43:08;;;;;;;9.02;1.50;;;15.20;93.50;;;;;;4930346;28;211061;-70
2023/05/16 10:45:40;;;;;;;11.15;1.80;;;16.20;93.80;;;;;;5031646;28;20463;-69
2023/05/16 10:48:08;;;;;;;5.07;1.10;;;17.40;92.70;;;;;;4951098;28;216299;-70
2023/05/16 10:50:35;;;;;;;7.07;1.10;;;17.70;90.60;;;;;;5004488;28;20046;-68
2023/05/16 10:53:20;;;;;;;8.15;1.38;;;17.50;90.50;;;;;;4934135;28;216263;-70
2023/05/16 10:56:12;;;;;;;8.30;1.33;;;17.60;91.50;;;;;;4999213;28;20042;-70
2023/05/16 10:58:43;;;;;;;7.45;1.17;;;17.50;90.20;;;;;;4930147;28;250094;-69
2023/05/16 11:01:15;;;;;;;9.80;1.40;;;16.70;90.90;;;;;;4992146;28;20069;-69
2023/05/16 11:03:59;;;;;;;10.18;1.23;;;15.80;91.70;;;;;;4942733;28;207562;-69
2023/05/16 11:06:26;;;;;;;10.40;1.52;;;15.40;92.50;;;;;;4994697;28;20054;-69
2023/05/16 11:09:10;;;;;;;8.55;1.33;;;16.00;92.50;;;;;;4940354;28;212326;-69
2023/05/16 11:11:46;;;;;;;9.20;1.40;;;16.60;91.90;;;;;;5006200;28;20530;-70
2023/05/16 11:14:22;;;;;;;9.52;1.65;;;16.60;92.40;;;;;;4976099;28;206050;-69
2023/05/16 11:16:59;;;;;;;11.60;1.45;;;17.40;91.70;;;;;;4987083;28;20057;-69
2023/05/16 11:19:33;;;;;;;13.40;1.75;;;16.90;91.60;;;;;;4949998;28;213100;-70
2023/05/16 11:22:18;;;;;;;9.95;1.50;;;16.90;92.20;;;;;;5001942;28;20057;-69
2023/05/16 11:25:04;;;;;;;12.40;1.80;;;16.50;92.80;;;;;;4957222;28;211441;-70
2023/05/16 11:27:35;;;;;;;9.77;1.70;;;15.90;93.10;;;;;;4986659;28;20535;-70
2023/05/16 11:30:04;;;;;;;11.13;1.70;;;16.00;92.90;;;;;;4947637;28;204726;-70
2023/05/16 11:32:34;;;;;;;10.13;1.80;;;16.60;91.70;;;;;;4985302;28;20047;-70
2023/05/16 11:35:03;;;;;;;12.77;1.83;;;16.80;91.40;;;;;;4952278;28;212777;-70
2023/05/16 11:37:29;;;;;;;11.95;2.13;;;16.80;91.70;;;;;;4982860;28;20051;-69
2023/05/16 11:40:10;;;;;;;10.85;1.60;;;17.10;92.00;;;;;;4954529;28;214069;-69
2023/05/16 11:42:37;;;;;;;8.98;1.30;;;16.90;92.30;;;;;;4987077;28;20054;-69
2023/05/16 11:45:05;;;;;;;10.23;1.70;;;15.60;92.90;;;;;;4961900;28;219434;-69
2023/05/16 11:47:31;;;;;;;9.73;1.52;;;15.20;93.30;;;;;;4990314;28;20060;-69
2023/05/16 11:49:57;;;;;;;10.35;1.70;;;15.70;93.30;;;;;;4959332;28;212479;-69
2023/05/16 11:52:25;;;;;;;9.43;1.50;;;15.40;93.40;;;;;;4979568;28;20389;-69
2023/05/16 11:54:51;;;;;;;9.50;1.75;;;14.70;94.50;;;;;;4958711;28;210995;-69
2023/05/16 11:57:17;;;;;;;8.85;1.92;;;14.70;94.60;;;;;;4984358;28;20065;-69
2023/05/16 11:59:43;;;;;;;12.10;1.90;;;15.20;95.00;;;;;;4918283;28;238390;-69
2023/05/16 12:02:09;;;;;;;9.73;1.77;;;15.90;94.80;;;;;;4995830;28;20060;-70
2023/05/16 12:04:37;;;;;;;11.30;2.67;;;15.20;94.20;;;;;;4966777;28;216374;-69
2023/05/16 12:07:04;;;;;;;15.90;2.80;;;15.00;94.40;;;;;;4984139;28;20074;-69
2023/05/16 12:09:30;;;;;;;11.75;2.03;;;15.00;94.00;;;;;;4936779;28;206214;-70
2023/05/16 12:11:57;;;;;;;10.80;2.22;;;14.40;94.70;;;;;;4995623;28;20072;-69
2023/05/16 12:14:24;;;;;;;15.57;2.03;;;14.00;95.50;;;;;;4977251;28;198434;-70
2023/05/16 12:16:51;;;;;;;8.80;1.80;;;14.00;96.10;;;;;;5000348;28;20058;-70
2023/05/16 12:19:18;;;;;;;11.10;1.98;;;14.70;95.50;;;;;;4972812;28;106767;-70
2023/05/16 12:21:44;;;;;;;12.52;2.10;;;14.50;95.60;;;;;;4989097;28;20050;-70
2023/05/16 12:24:11;;;;;;;13.55;2.35;;;14.50;96.40;;;;;;4940678;28;211544;-70
2023/05/16 12:26:40;;;;;;;14.00;2.45;;;14.50;96.40;;;;;;5001600;28;20680;-69
2023/05/16 12:29:06;;;;;;;11.80;2.47;;;14.40;96.60;;;;;;4957225;28;214125;-70
2023/05/16 12:31:36;;;;;;;11.25;2.47;;;14.70;96.30;;;;;;4996517;28;20419;-69
2023/05/16 12:34:02;;;;;;;14.57;2.40;;;14.40;96.40;;;;;;4956503;28;212211;-69
2023/05/16 12:36:33;;;;;;;11.15;2.60;;;14.50;97.00;;;;;;5009083;28;20782;-69
2023/05/16 12:39:02;;;;;;;12.43;2.50;;;14.80;95.90;;;;;;4957825;28;210389;-69
2023/05/16 12:41:30;;;;;;;11.68;2.53;;;15.10;95.60;;;;;;5015435;28;20503;-70